Time;durP1;ratioP1;P1;durP2;ratioP2;P2;SDS_P1;SDS_P2;PMS_P1;PMS_P2;Temp;Humidity;BMP_temperature;BMP_pressure;BME280_temperature;BME280_humidity;BME280_pressure;Samples;Min_cycle;Max_cycle;Signal;HPM_P1;HPM_P2
2023/06/07 00:00:13;;;;;;;8.50;3.97;;;;;;;;;;5007223;28;20303;-45
2023/06/07 00:02:42;;;;;;;10.52;3.88;;;;;;;;;;5027006;28;20052;-47
2023/06/07 00:05:12;;;;;;;8.73;4.05;;;;;;;;;;5007994;28;20060;-47
2023/06/07 00:07:41;;;;;;;8.80;3.75;;;;;;;;;;5015829;28;20049;-45
2023/06/07 00:10:09;;;;;;;9.88;3.83;;;;;;;;;;5015300;28;20839;-45
2023/06/07 00:12:37;;;;;;;13.97;4.80;;;;;;;;;;5008994;28;20057;-47
2023/06/07 00:15:07;;;;;;;9.73;3.83;;;;;;;;;;5011665;28;20415;-44
2023/06/07 00:17:37;;;;;;;9.90;4.10;;;;;;;;;;5020145;28;20044;-48
2023/06/07 00:20:08;;;;;;;10.93;4.10;;;;;;;;;;5013730;28;20056;-45
2023/06/07 00:22:37;;;;;;;9.52;3.58;;;;;;;;;;5009125;28;20808;-45
2023/06/07 00:25:05;;;;;;;12.97;4.37;;;;;;;;;;5020981;28;20423;-43
2023/06/07 00:27:33;;;;;;;9.55;4.05;;;;;;;;;;5004379;28;20037;-44
2023/06/07 00:30:02;;;;;;;10.73;3.80;;;;;;;;;;5019865;28;20470;-45
2023/06/07 00:32:31;;;;;;;11.27;4.22;;;;;;;;;;4992862;28;20458;-45
2023/06/07 00:35:01;;;;;;;12.27;3.90;;;;;;;;;;5029996;28;20057;-44
2023/06/07 00:37:28;;;;;;;10.13;4.03;;;;;;;;;;5004441;28;20081;-44
2023/06/07 00:39:56;;;;;;;10.93;3.60;;;;;;;;;;5018999;28;20033;-44
2023/06/07 00:42:26;;;;;;;9.77;3.47;;;;;;;;;;5022804;28;20444;-45
2023/06/07 00:44:58;;;;;;;9.55;4.00;;;;;;;;;;5019761;28;20047;-45
2023/06/07 00:47:26;;;;;;;11.90;3.75;;;;;;;;;;5002743;28;20041;-46
2023/06/07 00:49:56;;;;;;;8.83;3.60;;;;;;;;;;5015822;28;20500;-44
2023/06/07 00:52:25;;;;;;;12.50;3.97;;;;;;;;;;5019920;28;20065;-44
2023/06/07 00:54:53;;;;;;;8.95;3.75;;;;;;;;;;5007706;28;20063;-45
2023/06/07 00:57:21;;;;;;;9.50;3.90;;;;;;;;;;5019686;28;20495;-44
2023/06/07 00:59:51;;;;;;;8.82;3.38;;;;;;;;;;5018946;28;20037;-45
2023/06/07 01:02:19;;;;;;;14.37;3.43;;;;;;;;;;5012994;28;20036;-47
2023/06/07 01:04:49;;;;;;;11.30;4.03;;;;;;;;;;4991787;28;20171;-45
2023/06/07 01:07:24;;;;;;;11.00;3.65;;;;;;;;;;5011364;28;20063;-45
2023/06/07 01:09:54;;;;;;;8.77;3.60;;;;;;;;;;5013362;28;20041;-45
2023/06/07 01:12:22;;;;;;;11.88;3.85;;;;;;;;;;5018790;28;20049;-44
2023/06/07 01:14:50;;;;;;;12.17;3.87;;;;;;;;;;5014294;28;20040;-45
2023/06/07 01:17:18;;;;;;;9.23;4.18;;;;;;;;;;5030416;28;20029;-45
2023/06/07 01:19:53;;;;;;;11.20;3.75;;;;;;;;;;5018466;28;20071;-44
2023/06/07 01:22:24;;;;;;;10.45;3.80;;;;;;;;;;5020482;28;20057;-47
2023/06/07 01:24:55;;;;;;;11.23;4.28;;;;;;;;;;5028394;28;20128;-46
2023/06/07 01:27:27;;;;;;;20.37;4.00;;;;;;;;;;5022687;28;20037;-45
2023/06/07 01:29:55;;;;;;;9.70;4.20;;;;;;;;;;4986593;28;20665;-43
2023/06/07 01:32:23;;;;;;;8.95;3.85;;;;;;;;;;5028952;28;20069;-47
2023/06/07 01:34:52;;;;;;;10.77;4.03;;;;;;;;;;5024972;28;20491;-45
2023/06/07 01:37:20;;;;;;;9.65;3.95;;;;;;;;;;5029806;28;20052;-46
2023/06/07 01:39:50;;;;;;;12.33;4.33;;;;;;;;;;5002215;28;20045;-43
2023/06/07 01:42:20;;;;;;;7.88;3.50;;;;;;;;;;5001203;28;20086;-48
2023/06/07 01:44:49;;;;;;;10.02;3.40;;;;;;;;;;5022255;28;20052;-45
2023/06/07 01:47:16;;;;;;;11.15;4.47;;;;;;;;;;5020723;28;20048;-44
2023/06/07 01:49:45;;;;;;;10.30;3.70;;;;;;;;;;5024263;28;20037;-44
2023/06/07 01:52:13;;;;;;;8.87;3.53;;;;;;;;;;4940686;28;20037;-44
2023/06/07 01:54:41;;;;;;;9.60;3.45;;;;;;;;;;5016684;28;20958;-44
2023/06/07 01:57:14;;;;;;;10.82;3.45;;;;;;;;;;5014631;28;20033;-44
2023/06/07 01:59:46;;;;;;;9.85;3.22;;;;;;;;;;5017252;28;20048;-44
2023/06/07 02:02:18;;;;;;;8.05;3.15;;;;;;;;;;5023981;28;20045;-44
2023/06/07 02:04:53;;;;;;;7.90;3.03;;;;;;;;;;5029384;28;20533;-45
2023/06/07 02:07:27;;;;;;;7.60;3.05;;;;;;;;;;4991992;28;20057;-44
2023/06/07 02:09:55;;;;;;;8.25;3.33;;;;;;;;;;5028569;28;20033;-45
2023/06/07 02:12:23;;;;;;;8.88;3.35;;;;;;;;;;5026709;28;20033;-44
2023/06/07 02:14:52;;;;;;;7.25;3.22;;;;;;;;;;5005969;28;20046;-44
2023/06/07 02:17:23;;;;;;;10.47;3.33;;;;;;;;;;5032612;28;20051;-45
2023/06/07 02:19:51;;;;;;;9.48;3.58;;;;;;;;;;5010008;28;20037;-44
2023/06/07 02:22:18;;;;;;;8.68;3.85;;;;;;;;;;5025718;28;20044;-46
2023/06/07 02:24:47;;;;;;;8.90;3.13;;;;;;;;;;5027291;28;20119;-44
2023/06/07 02:27:15;;;;;;;11.50;3.83;;;;;;;;;;5025643;28;20093;-44
2023/06/07 02:29:42;;;;;;;11.33;3.40;;;;;;;;;;4992827;28;20132;-48
2023/06/07 02:32:11;;;;;;;9.57;3.40;;;;;;;;;;5012142;28;20542;-44
2023/06/07 02:34:43;;;;;;;8.60;3.58;;;;;;;;;;5010801;28;20033;-44
2023/06/07 02:37:10;;;;;;;9.20;3.17;;;;;;;;;;5016006;28;20132;-44
2023/06/07 02:39:38;;;;;;;9.20;3.40;;;;;;;;;;5007286;28;20040;-44
2023/06/07 02:42:06;;;;;;;9.10;3.60;;;;;;;;;;5022618;28;20033;-47
2023/06/07 02:44:35;;;;;;;8.90;3.60;;;;;;;;;;5017182;28;20511;-44
2023/06/07 02:47:04;;;;;;;10.27;3.67;;;;;;;;;;5005899;28;20261;-44
2023/06/07 02:49:33;;;;;;;10.07;3.97;;;;;;;;;;5023441;28;20045;-45
2023/06/07 02:52:01;;;;;;;9.07;3.63;;;;;;;;;;4998942;28;20041;-45
2023/06/07 02:54:29;;;;;;;9.07;3.40;;;;;;;;;;5006188;28;20506;-44
2023/06/07 02:56:56;;;;;;;10.10;3.97;;;;;;;;;;5003377;28;20037;-44
2023/06/07 02:59:24;;;;;;;11.27;4.22;;;;;;;;;;5006113;28;20087;-47
2023/06/07 03:01:52;;;;;;;7.90;3.75;;;;;;;;;;4999041;28;20480;-44
2023/06/07 03:04:20;;;;;;;9.23;4.05;;;;;;;;;;5005441;28;20044;-44
2023/06/07 03:06:51;;;;;;;7.87;3.40;;;;;;;;;;5022115;28;20049;-45
2023/06/07 03:09:19;;;;;;;9.70;4.18;;;;;;;;;;5014937;28;20049;-46
2023/06/07 03:11:50;;;;;;;10.45;4.20;;;;;;;;;;5018119;28;20503;-44
2023/06/07 03:14:19;;;;;;;11.07;4.47;;;;;;;;;;5023549;28;20522;-44
2023/06/07 03:16:48;;;;;;;8.88;3.60;;;;;;;;;;5016857;28;20076;-44
2023/06/07 03:19:16;;;;;;;11.83;3.77;;;;;;;;;;5021411;28;20049;-44
2023/06/07 03:21:44;;;;;;;10.05;4.10;;;;;;;;;;5003831;28;20629;-44
2023/06/07 03:24:14;;;;;;;11.25;4.25;;;;;;;;;;5029121;28;20119;-44
2023/06/07 03:26:42;;;;;;;11.93;4.43;;;;;;;;;;5016987;28;20086;-44
2023/06/07 03:29:10;;;;;;;8.45;4.05;;;;;;;;;;5024507;28;20037;-47
2023/06/07 03:31:37;;;;;;;9.33;4.33;;;;;;;;;;5015633;28;20044;-46
2023/06/07 03:34:06;;;;;;;10.45;4.10;;;;;;;;;;5018190;28;20037;-44
2023/06/07 03:36:35;;;;;;;11.70;4.50;;;;;;;;;;5008511;28;20037;-45
2023/06/07 03:39:03;;;;;;;9.13;3.83;;;;;;;;;;5025510;28;20049;-45
2023/06/07 03:41:32;;;;;;;9.82;3.75;;;;;;;;;;4989800;28;20045;-45
2023/06/07 03:44:00;;;;;;;9.50;4.20;;;;;;;;;;5009184;28;20040;-47
2023/06/07 03:46:28;;;;;;;10.07;4.32;;;;;;;;;;5016444;28;20124;-47
2023/06/07 03:48:55;;;;;;;8.85;4.18;;;;;;;;;;5022867;28;20045;-47
2023/06/07 03:51:23;;;;;;;9.68;3.85;;;;;;;;;;5019273;28;20268;-47
2023/06/07 03:53:53;;;;;;;11.93;4.57;;;;;;;;;;5014695;28;20044;-45
2023/06/07 03:56:20;;;;;;;9.13;4.17;;;;;;;;;;5021743;28;20043;-45
2023/06/07 03:58:50;;;;;;;10.93;4.75;;;;;;;;;;5016663;28;20242;-46
2023/06/07 04:01:18;;;;;;;11.48;4.15;;;;;;;;;;5017625;28;20032;-44
2023/06/07 04:03:45;;;;;;;18.17;5.15;;;;;;;;;;5017400;28;20438;-44
2023/06/07 04:06:14;;;;;;;14.88;4.68;;;;;;;;;;5017704;28;20262;-45
2023/06/07 04:08:42;;;;;;;12.00;4.23;;;;;;;;;;5012089;28;20046;-45
2023/06/07 04:11:10;;;;;;;9.57;3.90;;;;;;;;;;5018067;28;20064;-48
2023/06/07 04:13:37;;;;;;;12.13;4.60;;;;;;;;;;5018050;28;20511;-44
2023/06/07 04:16:07;;;;;;;9.73;4.65;;;;;;;;;;5023739;28;20448;-46
2023/06/07 04:18:35;;;;;;;10.95;4.20;;;;;;;;;;5025042;28;20064;-46
2023/06/07 04:21:03;;;;;;;11.27;4.50;;;;;;;;;;5009475;28;20049;-46
2023/06/07 04:23:32;;;;;;;9.73;4.55;;;;;;;;;;5013651;28;20033;-45
2023/06/07 04:26:04;;;;;;;12.25;4.82;;;;;;;;;;5006024;28;20385;-44
2023/06/07 04:28:32;;;;;;;8.75;3.83;;;;;;;;;;5015030;28;20495;-44
2023/06/07 04:31:00;;;;;;;12.10;4.40;;;;;;;;;;5015363;28;20376;-44
2023/06/07 04:33:29;;;;;;;14.17;4.43;;;;;;;;;;5011798;28;20037;-44
2023/06/07 04:35:57;;;;;;;8.13;3.95;;;;;;;;;;5030928;28;20431;-45
2023/06/07 04:38:25;;;;;;;9.20;4.15;;;;;;;;;;5026459;28;20041;-44
2023/06/07 04:40:54;;;;;;;13.20;5.35;;;;;;;;;;5012099;28;20416;-46
2023/06/07 04:43:23;;;;;;;11.15;4.80;;;;;;;;;;4991338;28;20037;-44
2023/06/07 04:46:01;;;;;;;12.27;5.13;;;;;;;;;;5022001;28;20044;-43
2023/06/07 04:48:31;;;;;;;27.13;5.65;;;;;;;;;;5013699;28;20041;-46
2023/06/07 04:51:03;;;;;;;12.88;5.07;;;;;;;;;;5019800;28;20116;-44
2023/06/07 04:53:34;;;;;;;12.18;4.93;;;;;;;;;;5004074;28;20090;-44
2023/06/07 04:56:02;;;;;;;12.27;4.20;;;;;;;;;;5023196;28;20068;-44
2023/06/07 04:58:29;;;;;;;10.17;4.03;;;;;;;;;;5021690;28;20621;-44
2023/06/07 05:00:57;;;;;;;11.55;3.85;;;;;;;;;;5025315;28;20049;-45
2023/06/07 05:03:25;;;;;;;11.13;4.03;;;;;;;;;;5019593;28;20112;-46
2023/06/07 05:05:55;;;;;;;12.90;4.57;;;;;;;;;;5019201;28;20045;-45
2023/06/07 05:08:23;;;;;;;11.00;4.75;;;;;;;;;;5007314;28;20053;-49
2023/06/07 05:10:51;;;;;;;11.50;4.53;;;;;;;;;;5025867;28;20041;-46
2023/06/07 05:13:18;;;;;;;13.73;4.47;;;;;;;;;;4986891;28;20369;-44
2023/06/07 05:15:50;;;;;;;10.10;4.72;;;;;;;;;;5015599;28;20040;-45
2023/06/07 05:18:19;;;;;;;9.90;4.53;;;;;;;;;;5021578;28;20499;-46
2023/06/07 05:20:47;;;;;;;16.50;4.75;;;;;;;;;;5013425;28;20045;-45
2023/06/07 05:23:17;;;;;;;12.37;4.40;;;;;;;;;;5014736;28;20041;-44
2023/06/07 05:25:45;;;;;;;12.25;4.85;;;;;;;;;;5017293;28;20052;-43
2023/06/07 05:28:13;;;;;;;11.55;4.30;;;;;;;;;;5008814;28;20494;-45
2023/06/07 05:30:42;;;;;;;8.65;4.43;;;;;;;;;;5005032;28;20514;-45
2023/06/07 05:33:09;;;;;;;17.80;5.50;;;;;;;;;;5009608;28;20038;-46
2023/06/07 05:35:37;;;;;;;10.53;4.73;;;;;;;;;;5006282;28;20454;-47
2023/06/07 05:38:05;;;;;;;11.95;4.72;;;;;;;;;;5022917;28;20116;-46
2023/06/07 05:40:34;;;;;;;11.98;5.05;;;;;;;;;;4996529;28;20402;-44
2023/06/07 05:43:02;;;;;;;10.15;4.65;;;;;;;;;;5012864;28;20682;-44
2023/06/07 05:45:30;;;;;;;12.85;4.55;;;;;;;;;;5010492;28;20044;-46
2023/06/07 05:47:57;;;;;;;11.03;4.97;;;;;;;;;;5003010;28;20483;-45
2023/06/07 05:50:25;;;;;;;12.52;4.90;;;;;;;;;;5009227;28;20068;-45
2023/06/07 05:52:56;;;;;;;14.65;4.78;;;;;;;;;;5010429;28;20080;-45
2023/06/07 05:55:25;;;;;;;13.70;5.00;;;;;;;;;;5006367;28;20037;-46
2023/06/07 05:57:57;;;;;;;17.25;5.90;;;;;;;;;;5017418;28;20046;-44
2023/06/07 06:00:25;;;;;;;13.80;4.77;;;;;;;;;;5003748;28;20074;-49
2023/06/07 06:02:53;;;;;;;10.70;4.63;;;;;;;;;;5024496;28;20033;-45
2023/06/07 06:05:23;;;;;;;11.45;5.47;;;;;;;;;;5040033;28;20114;-45
2023/06/07 06:07:51;;;;;;;11.05;5.20;;;;;;;;;;5021742;28;20072;-44
2023/06/07 06:10:19;;;;;;;11.63;4.55;;;;;;;;;;5008533;28;20095;-44
2023/06/07 06:12:47;;;;;;;17.87;5.10;;;;;;;;;;5025297;28;20448;-43
2023/06/07 06:15:16;;;;;;;19.17;5.00;;;;;;;;;;4999732;28;20431;-44
2023/06/07 06:17:48;;;;;;;14.85;5.20;;;;;;;;;;5026266;28;20041;-47
2023/06/07 06:20:17;;;;;;;13.38;5.38;;;;;;;;;;5019552;28;20064;-45
2023/06/07 06:22:45;;;;;;;12.88;5.65;;;;;;;;;;5015021;28;20052;-47
2023/06/07 06:25:13;;;;;;;15.53;5.53;;;;;;;;;;5022279;28;20495;-44
2023/06/07 06:27:41;;;;;;;14.38;5.05;;;;;;;;;;5013744;28;20041;-44
2023/06/07 06:30:10;;;;;;;11.15;5.13;;;;;;;;;;5025345;28;20041;-46
2023/06/07 06:32:40;;;;;;;12.98;4.78;;;;;;;;;;5004795;28;20995;-45
2023/06/07 06:35:08;;;;;;;15.20;5.38;;;;;;;;;;5039744;28;20036;-48
2023/06/07 06:37:36;;;;;;;12.87;5.43;;;;;;;;;;5016881;28;20128;-49
2023/06/07 06:40:05;;;;;;;12.30;5.15;;;;;;;;;;5018165;28;20037;-45
2023/06/07 06:42:33;;;;;;;11.70;4.80;;;;;;;;;;5028532;28;20048;-48
2023/06/07 06:45:01;;;;;;;12.90;4.55;;;;;;;;;;5002976;28;20106;-47
2023/06/07 06:47:29;;;;;;;12.93;5.25;;;;;;;;;;5010001;28;20033;-45
2023/06/07 06:50:00;;;;;;;14.77;5.07;;;;;;;;;;5017721;28;20503;-45
2023/06/07 06:52:28;;;;;;;12.73;5.40;;;;;;;;;;5019820;28;20033;-46
2023/06/07 06:54:56;;;;;;;13.25;5.15;;;;;;;;;;4988823;28;20037;-46
2023/06/07 06:57:24;;;;;;;14.75;5.85;;;;;;;;;;5018924;28;20526;-45
2023/06/07 06:59:53;;;;;;;15.85;5.68;;;;;;;;;;5019387;28;20827;-45
2023/06/07 07:02:20;;;;;;;16.03;5.30;;;;;;;;;;5019421;28;20482;-45
2023/06/07 07:04:50;;;;;;;12.25;5.00;;;;;;;;;;5001828;28;21136;-44
2023/06/07 07:07:19;;;;;;;15.60;5.57;;;;;;;;;;5027628;28;20124;-45
2023/06/07 07:09:47;;;;;;;14.95;5.95;;;;;;;;;;5014194;28;20049;-45
2023/06/07 07:12:15;;;;;;;16.52;5.80;;;;;;;;;;5024350;28;20045;-47
2023/06/07 07:14:42;;;;;;;14.77;5.20;;;;;;;;;;5004265;28;20033;-45
2023/06/07 07:17:10;;;;;;;14.55;5.32;;;;;;;;;;5015371;28;20053;-45
2023/06/07 07:19:38;;;;;;;12.25;4.80;;;;;;;;;;5021085;28;20040;-45
2023/06/07 07:22:06;;;;;;;17.35;5.00;;;;;;;;;;5011348;28;20049;-44
2023/06/07 07:24:36;;;;;;;14.93;4.78;;;;;;;;;;5029774;28;20103;-44
2023/06/07 07:27:05;;;;;;;14.93;5.10;;;;;;;;;;5007716;28;20549;-45
2023/06/07 07:29:33;;;;;;;13.15;5.28;;;;;;;;;;5023645;28;20047;-44
2023/06/07 07:32:00;;;;;;;15.68;5.70;;;;;;;;;;5013107;28;20986;-46
2023/06/07 07:34:28;;;;;;;15.52;5.05;;;;;;;;;;5025262;28;20072;-47
2023/06/07 07:37:02;;;;;;;12.55;5.22;;;;;;;;;;5012591;28;20077;-46
2023/06/07 07:39:31;;;;;;;19.80;5.77;;;;;;;;;;5017548;28;20033;-47
2023/06/07 07:42:03;;;;;;;12.60;5.05;;;;;;;;;;5008275;28;20103;-45
2023/06/07 07:44:31;;;;;;;13.02;4.85;;;;;;;;;;5013458;28;20045;-45
2023/06/07 07:47:00;;;;;;;24.48;5.80;;;;;;;;;;5009210;28;20048;-45
2023/06/07 07:49:31;;;;;;;15.80;6.03;;;;;;;;;;5015788;28;20605;-47
2023/06/07 07:52:03;;;;;;;12.53;5.50;;;;;;;;;;5012083;28;20127;-45
2023/06/07 07:54:31;;;;;;;11.38;4.82;;;;;;;;;;4998337;28;20036;-44
2023/06/07 07:57:00;;;;;;;11.45;5.30;;;;;;;;;;5006575;28;20345;-46
2023/06/07 07:59:28;;;;;;;14.88;5.68;;;;;;;;;;5022652;28;20468;-45
2023/06/07 08:01:56;;;;;;;11.82;4.78;;;;;;;;;;5000470;28;20048;-45
2023/06/07 08:04:24;;;;;;;13.20;5.17;;;;;;;;;;5014838;28;20045;-44
2023/06/07 08:06:52;;;;;;;11.45;5.20;;;;;;;;;;5011618;28;20056;-47
2023/06/07 08:09:19;;;;;;;12.73;5.18;;;;;;;;;;5012948;28;20062;-45
2023/06/07 08:11:47;;;;;;;13.75;5.63;;;;;;;;;;5021329;28;20033;-46
2023/06/07 08:14:17;;;;;;;12.93;5.28;;;;;;;;;;5010425;28;20828;-44
2023/06/07 08:16:45;;;;;;;13.23;5.40;;;;;;;;;;5025327;28;20047;-44
2023/06/07 08:19:13;;;;;;;11.88;4.65;;;;;;;;;;4993613;28;20037;-45
2023/06/07 08:21:43;;;;;;;14.82;5.28;;;;;;;;;;5000301;28;20037;-46
2023/06/07 08:24:11;;;;;;;12.75;4.88;;;;;;;;;;5019432;28;20041;-45
2023/06/07 08:26:42;;;;;;;18.40;5.72;;;;;;;;;;4995216;28;20047;-45
2023/06/07 08:29:15;;;;;;;14.57;5.27;;;;;;;;;;4978166;28;20484;-44
2023/06/07 08:31:45;;;;;;;12.38;4.80;;;;;;;;;;4995632;28;20043;-47
2023/06/07 08:34:12;;;;;;;13.93;4.88;;;;;;;;;;4992689;28;20049;-44
2023/06/07 08:36:42;;;;;;;15.00;5.35;;;;;;;;;;5002455;28;20037;-44
2023/06/07 08:39:10;;;;;;;11.93;4.97;;;;;;;;;;5000335;28;20095;-46
2023/06/07 08:41:39;;;;;;;13.20;5.57;;;;;;;;;;4986558;28;20030;-47
2023/06/07 08:44:07;;;;;;;13.25;5.47;;;;;;;;;;4983383;28;20111;-46
2023/06/07 08:46:36;;;;;;;12.90;6.28;;;;;;;;;;4999553;28;20482;-46
2023/06/07 08:49:05;;;;;;;12.88;5.80;;;;;;;;;;4982810;28;20521;-45
2023/06/07 08:51:34;;;;;;;13.15;5.53;;;;;;;;;;4984630;28;20140;-44
2023/06/07 08:54:03;;;;;;;9.60;3.87;;;;;;;;;;4993908;28;20053;-47
2023/06/07 08:56:31;;;;;;;12.85;5.18;;;;;;;;;;5000768;28;20049;-44
2023/06/07 08:58:59;;;;;;;11.52;4.35;;;;;;;;;;4981653;28;20049;-47
2023/06/07 09:01:29;;;;;;;12.32;5.18;;;;;;;;;;4997792;28;20048;-46
2023/06/07 09:03:58;;;;;;;11.23;5.07;;;;;;;;;;4985461;28;20033;-44
2023/06/07 09:06:34;;;;;;;15.43;5.47;;;;;;;;;;4984461;28;20514;-45
2023/06/07 09:09:04;;;;;;;15.68;5.53;;;;;;;;;;4988307;28;20057;-49
2023/06/07 09:11:32;;;;;;;13.15;5.70;;;;;;;;;;4986907;28;20072;-45
2023/06/07 09:14:00;;;;;;;11.73;4.88;;;;;;;;;;4997593;28;20041;-45
2023/06/07 09:16:27;;;;;;;14.23;5.90;;;;;;;;;;5006271;28;21016;-45
2023/06/07 09:18:56;;;;;;;10.80;4.67;;;;;;;;;;4984219;28;20052;-46
2023/06/07 09:21:24;;;;;;;11.15;5.53;;;;;;;;;;4999222;28;20068;-48
2023/06/07 09:23:54;;;;;;;12.50;5.93;;;;;;;;;;4993553;28;20445;-45
2023/06/07 09:26:23;;;;;;;12.40;5.32;;;;;;;;;;5008637;28;20045;-46
2023/06/07 09:28:50;;;;;;;15.38;5.35;;;;;;;;;;4988462;28;20554;-46
2023/06/07 09:31:28;;;;;;;12.27;5.27;;;;;;;;;;5010029;28;20060;-47
2023/06/07 09:33:58;;;;;;;12.05;6.10;;;;;;;;;;5009843;28;20099;-49
2023/06/07 09:36:28;;;;;;;11.70;5.53;;;;;;;;;;5016251;28;20041;-47
2023/06/07 09:38:58;;;;;;;12.20;5.57;;;;;;;;;;5009750;28;20128;-46
2023/06/07 09:41:30;;;;;;;14.43;6.15;;;;;;;;;;4999565;28;20211;-46
2023/06/07 09:43:58;;;;;;;16.47;6.23;;;;;;;;;;5007896;28;20821;-48
2023/06/07 09:46:34;;;;;;;14.43;6.10;;;;;;;;;;5002817;28;20715;-46
2023/06/07 09:49:03;;;;;;;13.82;5.63;;;;;;;;;;5006793;28;20041;-45
2023/06/07 09:51:38;;;;;;;14.52;6.30;;;;;;;;;;4995687;28;20706;-45
2023/06/07 09:54:09;;;;;;;13.27;5.88;;;;;;;;;;5014366;28;20033;-47
2023/06/07 09:56:40;;;;;;;13.13;5.67;;;;;;;;;;4993589;28;20629;-49
2023/06/07 09:59:08;;;;;;;11.68;5.35;;;;;;;;;;4995206;28;20033;-46
2023/06/07 10:01:42;;;;;;;11.98;5.57;;;;;;;;;;5006850;28;20633;-48
2023/06/07 10:04:10;;;;;;;13.23;5.45;;;;;;;;;;5013612;28;20080;-44
2023/06/07 10:06:40;;;;;;;13.68;6.22;;;;;;;;;;4986922;28;20041;-45
2023/06/07 10:09:11;;;;;;;13.77;5.70;;;;;;;;;;5005990;28;20053;-49
2023/06/07 10:11:40;;;;;;;11.57;5.38;;;;;;;;;;5002331;28;20229;-46
2023/06/07 10:14:10;;;;;;;13.73;5.78;;;;;;;;;;5011574;28;20045;-48
2023/06/07 10:16:44;;;;;;;16.92;7.10;;;;;;;;;;5013202;28;20036;-45
2023/06/07 10:19:18;;;;;;;14.13;6.82;;;;;;;;;;4966887;28;20037;-46
2023/06/07 10:21:48;;;;;;;10.73;5.87;;;;;;;;;;5009583;28;20499;-46
2023/06/07 10:24:20;;;;;;;14.38;6.75;;;;;;;;;;5000981;28;20037;-46
2023/06/07 10:26:50;;;;;;;14.60;5.95;;;;;;;;;;5004132;28;20124;-44
2023/06/07 10:29:22;;;;;;;15.10;6.88;;;;;;;;;;4996495;28;20120;-45
2023/06/07 10:31:57;;;;;;;13.25;6.85;;;;;;;;;;4985607;28;20119;-49
2023/06/07 10:34:25;;;;;;;13.27;6.60;;;;;;;;;;4999933;28;20037;-45
2023/06/07 10:36:53;;;;;;;13.68;6.03;;;;;;;;;;4990996;28;20562;-52
2023/06/07 10:39:22;;;;;;;14.13;6.65;;;;;;;;;;5008694;28;20055;-47
2023/06/07 10:41:51;;;;;;;12.30;7.15;;;;;;;;;;4994732;28;20045;-46
2023/06/07 10:44:18;;;;;;;15.07;6.95;;;;;;;;;;4990073;28;20052;-44
2023/06/07 10:46:46;;;;;;;12.17;6.83;;;;;;;;;;5004641;28;20060;-45
2023/06/07 10:49:33;;;;;;;14.95;6.93;;;;;;;;;;4998065;28;20063;-45
2023/06/07 10:52:04;;;;;;;13.98;6.55;;;;;;;;;;4996401;28;20480;-46
2023/06/07 10:54:34;;;;;;;16.58;6.82;;;;;;;;;;5011352;28;21038;-50
2023/06/07 10:57:03;;;;;;;13.13;6.30;;;;;;;;;;4991813;28;20051;-48
2023/06/07 10:59:32;;;;;;;11.07;6.10;;;;;;;;;;5000000;28;20487;-49
2023/06/07 11:02:19;;;;;;;11.68;5.65;;;;;;;;;;4982718;28;20793;-45
2023/06/07 11:04:52;;;;;;;11.48;6.13;;;;;;;;;;4996367;28;20072;-47
2023/06/07 11:07:23;;;;;;;14.75;6.30;;;;;;;;;;5010560;28;20069;-50
2023/06/07 11:10:15;;;;;;;13.18;6.03;;;;;;;;;;4990995;28;20057;-46
2023/06/07 11:12:59;;;;;;;12.30;6.20;;;;;;;;;;5008479;28;20033;-48
2023/06/07 11:15:30;;;;;;;12.50;5.90;;;;;;;;;;5008919;28;20041;-46
2023/06/07 11:17:59;;;;;;;15.32;6.60;;;;;;;;;;5006825;28;20045;-44
2023/06/07 11:20:48;;;;;;;12.07;6.00;;;;;;;;;;4990978;28;20040;-47
2023/06/07 11:23:21;;;;;;;13.70;6.22;;;;;;;;;;5008248;28;20554;-47
2023/06/07 11:25:51;;;;;;;14.17;7.80;;;;;;;;;;4999801;28;20068;-46
2023/06/07 11:28:24;;;;;;;15.60;7.22;;;;;;;;;;5006178;28;20052;-45
2023/06/07 11:30:52;;;;;;;14.88;6.65;;;;;;;;;;5002343;28;20044;-45
2023/06/07 11:33:21;;;;;;;13.30;7.10;;;;;;;;;;4980741;28;20526;-45
2023/06/07 11:35:50;;;;;;;13.55;6.60;;;;;;;;;;5010985;28;21667;-46
2023/06/07 11:38:18;;;;;;;13.50;6.40;;;;;;;;;;5002594;28;20051;-46
2023/06/07 11:40:46;;;;;;;11.88;6.55;;;;;;;;;;5004188;28;20041;-47
2023/06/07 11:43:16;;;;;;;13.80;6.47;;;;;;;;;;4989247;28;20068;-47
2023/06/07 11:45:44;;;;;;;13.35;6.15;;;;;;;;;;5013082;28;20068;-47
2023/06/07 11:48:12;;;;;;;16.23;6.13;;;;;;;;;;4969622;28;20435;-47
2023/06/07 11:50:43;;;;;;;13.10;5.87;;;;;;;;;;5003080;28;20060;-44
2023/06/07 11:53:11;;;;;;;12.32;6.68;;;;;;;;;;4998334;28;20044;-44
2023/06/07 11:55:41;;;;;;;14.35;6.00;;;;;;;;;;5006825;28;20041;-44
2023/06/07 11:58:09;;;;;;;13.70;6.15;;;;;;;;;;4992590;28;20055;-46
2023/06/07 12:00:38;;;;;;;15.40;6.55;;;;;;;;;;4996192;28;20055;-46
2023/06/07 12:03:06;;;;;;;14.53;6.83;;;;;;;;;;4996851;28;20056;-47
2023/06/07 12:05:35;;;;;;;14.27;6.95;;;;;;;;;;5001295;28;20041;-44
2023/06/07 12:08:04;;;;;;;15.98;7.03;;;;;;;;;;4995597;28;20065;-48
2023/06/07 12:10:33;;;;;;;14.77;6.93;;;;;;;;;;4995770;28;20136;-45
2023/06/07 12:13:04;;;;;;;15.27;6.53;;;;;;;;;;5004618;28;20399;-44
2023/06/07 12:15:34;;;;;;;12.77;6.27;;;;;;;;;;5000437;28;20045;-44
2023/06/07 12:18:03;;;;;;;13.88;6.82;;;;;;;;;;5005959;28;20044;-44
2023/06/07 12:20:32;;;;;;;18.23;6.35;;;;;;;;;;4998888;28;20413;-47
2023/06/07 12:23:03;;;;;;;18.17;6.47;;;;;;;;;;5000746;28;20043;-48
2023/06/07 12:25:31;;;;;;;15.98;7.25;;;;;;;;;;4995617;28;20495;-49
2023/06/07 12:27:59;;;;;;;11.33;5.70;;;;;;;;;;5008537;28;20115;-46
2023/06/07 12:30:32;;;;;;;13.48;6.45;;;;;;;;;;4993701;28;20597;-45
2023/06/07 12:33:00;;;;;;;14.50;6.07;;;;;;;;;;5003993;28;20045;-47
2023/06/07 12:35:40;;;;;;;11.65;5.82;;;;;;;;;;4993074;28;20283;-45
2023/06/07 12:38:08;;;;;;;12.90;6.65;;;;;;;;;;4998370;28;20052;-45
2023/06/07 12:40:36;;;;;;;16.33;6.60;;;;;;;;;;5009422;28;20532;-50
2023/06/07 12:43:04;;;;;;;11.63;6.30;;;;;;;;;;4999003;28;20040;-47
2023/06/07 12:45:31;;;;;;;13.77;6.05;;;;;;;;;;5004749;28;20060;-48
2023/06/07 12:47:59;;;;;;;10.65;5.53;;;;;;;;;;4998429;28;20132;-46
2023/06/07 12:50:27;;;;;;;11.05;5.93;;;;;;;;;;4998212;28;20040;-49
2023/06/07 12:52:56;;;;;;;12.97;7.30;;;;;;;;;;4994079;28;20052;-49
2023/06/07 12:55:24;;;;;;;14.07;6.80;;;;;;;;;;4999407;28;20388;-45
2023/06/07 12:57:51;;;;;;;12.63;7.18;;;;;;;;;;4999969;28;20550;-48
2023/06/07 13:00:20;;;;;;;13.20;6.70;;;;;;;;;;4983631;28;20591;-44
2023/06/07 13:02:48;;;;;;;14.63;6.25;;;;;;;;;;4971584;28;20041;-45
2023/06/07 13:05:17;;;;;;;14.87;6.53;;;;;;;;;;4995413;28;20041;-45
2023/06/07 13:07:45;;;;;;;15.25;6.15;;;;;;;;;;5000918;28;20059;-47
2023/06/07 13:10:15;;;;;;;13.95;7.03;;;;;;;;;;4980847;28;20044;-46
2023/06/07 13:12:42;;;;;;;12.98;6.40;;;;;;;;;;5006224;28;20060;-45
2023/06/07 13:15:10;;;;;;;16.20;7.07;;;;;;;;;;4988258;28;20495;-45
2023/06/07 13:17:38;;;;;;;17.93;6.77;;;;;;;;;;5008984;28;20076;-45
2023/06/07 13:20:07;;;;;;;13.40;6.40;;;;;;;;;;4982349;28;20073;-45
2023/06/07 13:22:36;;;;;;;13.57;6.82;;;;;;;;;;5003880;28;20297;-49
2023/06/07 13:25:04;;;;;;;14.35;5.85;;;;;;;;;;5006673;28;20057;-47
2023/06/07 13:27:33;;;;;;;14.63;6.25;;;;;;;;;;5006090;28;20048;-48
2023/06/07 13:30:01;;;;;;;12.37;5.93;;;;;;;;;;4993366;28;20045;-47
2023/06/07 13:32:32;;;;;;;10.55;5.40;;;;;;;;;;5004693;28;20041;-45
2023/06/07 13:35:00;;;;;;;13.93;6.10;;;;;;;;;;5008577;28;20060;-45
2023/06/07 13:37:28;;;;;;;14.48;6.85;;;;;;;;;;5006631;28;20087;-45
2023/06/07 13:39:57;;;;;;;11.98;6.28;;;;;;;;;;4993694;28;20073;-47
2023/06/07 13:42:26;;;;;;;14.20;5.77;;;;;;;;;;5006734;28;20037;-49
2023/06/07 13:44:55;;;;;;;12.57;5.45;;;;;;;;;;5011122;28;20148;-45
2023/06/07 13:47:23;;;;;;;15.18;5.72;;;;;;;;;;5000325;28;20122;-47
2023/06/07 13:49:52;;;;;;;13.57;6.00;;;;;;;;;;4989593;28;20041;-46
2023/06/07 13:52:20;;;;;;;15.63;6.07;;;;;;;;;;5006323;28;20045;-47
2023/06/07 13:54:48;;;;;;;14.27;6.00;;;;;;;;;;4996934;28;20511;-46
2023/06/07 13:57:16;;;;;;;14.00;5.95;;;;;;;;;;5009260;28;20037;-47
2023/06/07 13:59:44;;;;;;;13.23;6.15;;;;;;;;;;4996204;28;20037;-46
2023/06/07 14:02:15;;;;;;;11.82;5.68;;;;;;;;;;4999090;28;20045;-47
2023/06/07 14:04:43;;;;;;;13.32;5.95;;;;;;;;;;5001877;28;21190;-45
2023/06/07 14:07:11;;;;;;;12.43;5.67;;;;;;;;;;4998859;28;20041;-46
2023/06/07 14:09:39;;;;;;;10.55;5.45;;;;;;;;;;5001481;28;20049;-47
2023/06/07 14:12:11;;;;;;;15.13;5.53;;;;;;;;;;5010832;28;20033;-47
2023/06/07 14:14:39;;;;;;;11.50;5.15;;;;;;;;;;4995544;28;20438;-44
2023/06/07 14:17:06;;;;;;;11.85;5.40;;;;;;;;;;5002397;28;20048;-44
2023/06/07 14:19:35;;;;;;;11.70;4.33;;;;;;;;;;5000000;28;20056;-45
2023/06/07 14:22:03;;;;;;;14.77;5.05;;;;;;;;;;5004766;28;20071;-47
2023/06/07 14:24:31;;;;;;;12.23;5.35;;;;;;;;;;5004301;28;20507;-43
2023/06/07 14:26:59;;;;;;;11.27;5.45;;;;;;;;;;5012269;28;20048;-48
2023/06/07 14:29:27;;;;;;;10.57;5.15;;;;;;;;;;4967191;28;20053;-46
2023/06/07 14:31:55;;;;;;;12.60;5.00;;;;;;;;;;5013053;28;20069;-47
2023/06/07 14:34:23;;;;;;;11.18;5.18;;;;;;;;;;5001908;28;20049;-45
2023/06/07 14:36:54;;;;;;;12.18;5.20;;;;;;;;;;4993306;28;20057;-45
2023/06/07 14:39:22;;;;;;;10.23;4.13;;;;;;;;;;5005321;28;20116;-48
2023/06/07 14:41:50;;;;;;;15.02;5.60;;;;;;;;;;5001553;28;20053;-44
2023/06/07 14:44:19;;;;;;;10.43;4.73;;;;;;;;;;5008288;28;20126;-45